Архив погоды в Ковде

Метеограмма Ковда
Вторник, 19 Июня
Время местн. Темп Ветер Видим Явления Облачность нижн/средн/верх Атм. давл. Влжн Точка росы ВНГО R Сост. почвы Tg s
Напр Скр Прв ур.ст ур.м изм
09:00 +11.5° В,С-В 2 4 500 м туман неба не видно 754 755 -2.3 94% +10.6° - 3 Влажная (без луж) +16° -
06:00 - +10.8° штиль 0 - - - - 754 755 -2.3 99% +10.6° - - - - -
03:00 - +8.5° В,С-В 1 2 - - - 754 755 -2.3 98% +8.2° - - - - -
00:00 - +11.6° Ю-В 1 2 - - - 754 755 -2.3 98% +11.3° - - - - -
Понедельник, 18 Июня
Время местн. Темп Ветер Видим Явления Облачность нижн/средн/верх Атм. давл. Влжн Точка росы ВНГО R Сост. почвы Tg s
Напр Скр Прв ур.ст ур.м изм
21:00 +13.7° Ю,Ю-В 2 21 4 км слабый ливневый дождь преимущественно облачно 753 755 -0.2 97% +13.3° 600 м 8 - - -
18:00 - +17.7° Ю-В 4 10 - - - 754 755 -2.3 61% +10° - - - - -
15:00 - +18.2° Ю-В 4 10 - - - 756 757 -1.9 53% +8.6° - - - - -
12:00 +17° В 2 5 более 50 км - переменная облачность 758 759 -1.8 60% +9.1° 1 км - - - -
09:00 +12.5° В 2 4 более 50 км - облачно с прояснениями 760 761 -1.3 71% +7.3° 1 км 0 Сухая (без трещин) +11° -
06:00 - +10.3° В 3 5 - - - 761 762 -0.6 84% +7.7° - - - - -
03:00 - +10.2° С-В 2 3 - - - 761 763 -0.3 87% +8.2° - - - - -
00:00 - +14.6° Ю,Ю-В 1 2 - - - 762 763 +0.1 55% +5.6° - - - - -
Воскресенье, 17 Июня
Время местн. Темп Ветер Видим Явления Облачность нижн/средн/верх Атм. давл. Влжн Точка росы ВНГО R Сост. почвы Tg s
Напр Скр Прв ур.ст ур.м изм
21:00 +20.9° Ю-В 2 3 50 км - незначительная облачность 762 763 +0.1 34% +4.4° 1 км 0 - - -
18:00 - +20.9° В 3 5 - - - 762 763 +0.1 34% +4.5° - - - - -
15:00 - +21.8° В 2 5 - - - 762 763 +0.1 32% +4.4° - - - - -
12:00 +19.6° В 2 4 50 км - переменная облачность 762 764 +0.2 40% +5.8° 1 км - - - -
09:00 +18.6° С 1 2 более 50 км - переменная облачность 762 763 +0.5 50% +8° 1 км 0 Сухая (без трещин) +10° -
06:00 - +16.3° Ю,Ю-З 1 2 - - - 761 763 +0.5 60% +8.5° - - - - -
03:00 - +11.9° Ю-З 1 2 - - - 761 762 +0.7 71% +6.9° - - - - -
00:00 - +11.3° С,С-З 1 2 - - - 760 762 +1.1 74% +6.8° - - - - -
Суббота, 16 Июня
Время местн. Темп Ветер Видим Явления Облачность нижн/средн/верх Атм. давл. Влжн Точка росы ВНГО R Сост. почвы Tg s
Напр Скр Прв ур.ст ур.м изм
21:00 +19.5° З 1 2 более 50 км - переменная облачность 759 761 +0.2 37% +4.4° 1 км 0 - - -
18:00 - +17.8° З,С-З 1 2 - - - 759 760 -0.2 46% +6° - - - - -
15:00 - +20.8° С-З 1 4 - - - 759 761 +0.4 37% +5.6° - - - - -
12:00 +23.6° Ю-З 2 5 более 50 км - переменная облачность 759 761 +0.4 32% +6° 1 км - - - -
09:00 +19.6° З,С-З 1 5 более 50 км - ясно 759 760 +1 47% +8.1° более 2.5 км 0 Сухая (без трещин) +8° -
06:00 - +12.8° штиль 0 - - - - 758 760 +1 81% +9.7° - - - - -